createdAt,value
2023-04-26T00:00:22.975Z,0.00
2023-04-26T00:01:22.985Z,0.00
2023-04-26T00:02:23.108Z,0.00
2023-04-26T00:03:23.132Z,0.00
2023-04-26T00:04:23.112Z,0.00
2023-04-26T00:05:23.084Z,0.00
2023-04-26T00:06:22.911Z,0.00
2023-04-26T00:07:22.928Z,0.00
2023-04-26T00:08:22.909Z,0.00
2023-04-26T00:09:22.910Z,0.00
2023-04-26T00:10:22.869Z,0.00
2023-04-26T00:11:22.977Z,0.00
2023-04-26T00:12:22.859Z,0.00
2023-04-26T00:13:22.860Z,0.00
2023-04-26T00:14:22.831Z,0.00
2023-04-26T00:15:22.801Z,0.00
2023-04-26T00:16:22.882Z,0.00
2023-04-26T00:17:22.784Z,0.00
2023-04-26T00:18:22.793Z,0.00
2023-04-26T00:19:22.792Z,0.00
2023-04-26T00:20:22.768Z,0.00
2023-04-26T00:21:22.737Z,0.00
2023-04-26T00:22:22.734Z,0.00
2023-04-26T00:23:22.748Z,0.00
2023-04-26T00:24:22.757Z,0.00
2023-04-26T00:25:22.730Z,0.00
2023-04-26T00:26:22.719Z,0.00
2023-04-26T00:27:22.683Z,0.00
2023-04-26T00:28:22.728Z,0.00
2023-04-26T00:29:22.696Z,0.00
2023-04-26T00:30:22.652Z,0.00
2023-04-26T00:31:22.648Z,0.00
2023-04-26T00:32:22.739Z,0.00
2023-04-26T00:33:22.601Z,0.00
2023-04-26T00:34:22.625Z,0.00
2023-04-26T00:35:22.579Z,0.00
2023-04-26T00:36:22.580Z,0.00
2023-04-26T00:37:22.695Z,0.00
2023-04-26T00:38:22.581Z,0.00
2023-04-26T00:39:22.541Z,0.00
2023-04-26T00:40:22.548Z,0.00
2023-04-26T00:41:22.559Z,0.00
2023-04-26T00:42:22.504Z,0.00
2023-04-26T00:43:22.572Z,0.00
2023-04-26T00:44:22.525Z,0.00
2023-04-26T00:45:22.509Z,0.00
2023-04-26T00:46:22.672Z,0.00
2023-04-26T00:47:22.456Z,0.00
2023-04-26T00:48:22.446Z,0.00
2023-04-26T00:49:22.437Z,0.00
2023-04-26T00:50:22.444Z,0.00
2023-04-26T00:51:22.428Z,0.00
2023-04-26T00:52:22.485Z,0.00
2023-04-26T00:53:22.404Z,0.00
2023-04-26T00:54:22.369Z,0.00
2023-04-26T00:55:22.389Z,0.00
2023-04-26T00:56:25.442Z,0.00
2023-04-26T00:57:22.347Z,0.00
2023-04-26T00:58:22.320Z,0.00
2023-04-26T00:59:22.356Z,0.00
2023-04-26T01:00:22.294Z,0.00
2023-04-26T01:01:22.331Z,0.00
2023-04-26T01:02:22.334Z,0.00
2023-04-26T01:03:22.487Z,0.00
2023-04-26T01:04:22.345Z,0.00
2023-04-26T01:05:22.238Z,0.00
2023-04-26T01:06:22.226Z,0.00
2023-04-26T01:07:22.233Z,0.00
2023-04-26T01:08:22.228Z,0.00
2023-04-26T01:09:22.193Z,0.00
2023-04-26T01:10:22.270Z,0.00
2023-04-26T01:11:22.166Z,0.00
2023-04-26T01:12:22.244Z,0.00
2023-04-26T01:13:22.138Z,0.00
2023-04-26T01:14:22.153Z,0.00
2023-04-26T01:15:22.143Z,0.00
2023-04-26T01:16:22.138Z,0.00
2023-04-26T01:17:22.144Z,0.00
2023-04-26T01:18:22.091Z,0.00
2023-04-26T01:19:22.084Z,0.00
2023-04-26T01:20:22.087Z,0.00
2023-04-26T01:21:22.052Z,0.00
2023-04-26T01:22:22.083Z,0.00
2023-04-26T01:23:22.029Z,0.00
2023-04-26T01:24:22.029Z,0.00
2023-04-26T01:25:22.041Z,0.00
2023-04-26T01:26:21.994Z,0.00
2023-04-26T01:27:21.985Z,0.00
2023-04-26T01:28:21.992Z,0.00
2023-04-26T01:29:21.960Z,0.00
2023-04-26T01:30:21.981Z,0.00
2023-04-26T01:31:21.968Z,0.00
2023-04-26T01:32:21.928Z,0.00
2023-04-26T01:33:21.934Z,0.00
2023-04-26T01:34:21.924Z,0.00
2023-04-26T01:35:21.906Z,0.00
2023-04-26T01:36:21.883Z,0.00
2023-04-26T01:37:21.874Z,0.00
2023-04-26T01:38:21.863Z,0.00
2023-04-26T01:39:21.861Z,0.00
2023-04-26T01:40:21.834Z,0.00
2023-04-26T01:41:21.821Z,0.00
2023-04-26T01:42:21.833Z,0.00
2023-04-26T01:43:21.802Z,0.00
2023-04-26T01:44:21.824Z,0.00
2023-04-26T01:45:21.776Z,0.00
2023-04-26T01:46:21.790Z,0.00
2023-04-26T01:47:21.809Z,0.00
2023-04-26T01:48:21.755Z,0.00
2023-04-26T01:49:21.741Z,0.00
2023-04-26T01:50:21.748Z,0.00
2023-04-26T01:51:21.728Z,0.00
2023-04-26T01:52:21.699Z,0.00
2023-04-26T01:53:21.689Z,0.00
2023-04-26T01:54:21.696Z,0.00
2023-04-26T01:55:21.662Z,0.00
2023-04-26T01:56:21.662Z,0.00
2023-04-26T01:57:21.644Z,0.00
2023-04-26T01:58:21.630Z,0.00
2023-04-26T01:59:21.636Z,0.00
2023-04-26T02:00:21.631Z,0.00
2023-04-26T02:01:21.609Z,0.00
2023-04-26T02:02:21.624Z,0.00
2023-04-26T02:03:21.699Z,0.00
2023-04-26T02:04:21.599Z,0.00
2023-04-26T02:05:21.676Z,0.00
2023-04-26T02:06:21.648Z,0.00
2023-04-26T02:07:21.525Z,0.00
2023-04-26T02:08:21.522Z,0.00
2023-04-26T02:09:21.520Z,0.00
2023-04-26T02:10:21.502Z,0.00
2023-04-26T02:11:21.527Z,0.00
2023-04-26T02:12:21.495Z,0.00
2023-04-26T02:13:21.462Z,0.00
2023-04-26T02:14:21.491Z,0.00
2023-04-26T02:15:21.442Z,0.00
2023-04-26T02:16:21.549Z,0.00
2023-04-26T02:17:21.420Z,0.00
2023-04-26T02:18:21.407Z,0.00
2023-04-26T02:19:21.420Z,0.00
2023-04-26T02:20:21.382Z,0.00
2023-04-26T02:21:21.398Z,0.00
2023-04-26T02:22:21.359Z,0.00
2023-04-26T02:23:21.363Z,0.00
2023-04-26T02:24:21.338Z,0.00
2023-04-26T02:25:21.326Z,0.00
2023-04-26T02:26:21.344Z,0.00
2023-04-26T02:27:21.357Z,0.00
2023-04-26T02:28:28.494Z,0.00
2023-04-26T02:29:43.171Z,0.00
2023-04-26T02:30:22.300Z,0.00
2023-04-26T02:31:22.860Z,0.00
2023-04-26T02:32:28.358Z,0.00
2023-04-26T02:33:28.839Z,0.00
2023-04-26T02:34:28.280Z,0.00
2023-04-26T02:35:28.312Z,0.00
2023-04-26T02:36:21.224Z,0.00
2023-04-26T02:37:28.266Z,0.00
2023-04-26T02:38:28.260Z,0.00
2023-04-26T02:39:28.247Z,0.00
2023-04-26T02:40:28.890Z,0.00
2023-04-26T02:41:21.292Z,0.00
2023-04-26T02:42:21.272Z,0.00
2023-04-26T02:43:21.216Z,0.00
2023-04-26T02:44:21.296Z,0.00
2023-04-26T02:45:21.210Z,0.00
2023-04-26T02:46:21.162Z,0.00
2023-04-26T02:47:21.091Z,0.00
2023-04-26T02:48:21.172Z,0.00
2023-04-26T02:49:21.076Z,0.00
2023-04-26T02:50:21.087Z,0.00
2023-04-26T02:51:21.039Z,0.00
2023-04-26T02:52:21.030Z,0.00
2023-04-26T02:53:28.089Z,0.00
2023-04-26T02:54:21.023Z,0.00
2023-04-26T02:55:21.009Z,0.00
2023-04-26T02:56:20.972Z,0.00
2023-04-26T02:57:20.991Z,0.00
2023-04-26T02:58:20.950Z,0.00
2023-04-26T02:59:20.936Z,0.00
2023-04-26T03:00:20.930Z,0.00
2023-04-26T03:01:20.945Z,0.00
2023-04-26T03:02:20.996Z,0.00
2023-04-26T03:03:21.088Z,0.00
2023-04-26T03:04:20.948Z,0.00
2023-04-26T03:05:20.873Z,0.00
2023-04-26T03:06:20.867Z,0.00
2023-04-26T03:07:20.854Z,0.00
2023-04-26T03:08:20.842Z,0.00
2023-04-26T03:09:20.863Z,0.00
2023-04-26T03:10:20.808Z,0.00
2023-04-26T03:11:20.802Z,0.00
2023-04-26T03:12:20.794Z,0.00
2023-04-26T03:13:20.803Z,0.00
2023-04-26T03:14:20.773Z,0.00
2023-04-26T03:15:20.761Z,0.00
2023-04-26T03:16:20.784Z,0.00
2023-04-26T03:17:20.755Z,0.00
2023-04-26T03:18:20.721Z,0.00
2023-04-26T03:19:20.722Z,0.00
2023-04-26T03:20:20.735Z,0.00
2023-04-26T03:21:20.689Z,0.00
2023-04-26T03:22:20.705Z,0.00
2023-04-26T03:23:20.661Z,0.00
2023-04-26T03:24:20.666Z,0.00
2023-04-26T03:25:20.659Z,0.00
2023-04-26T03:27:14.341Z,0.00
2023-04-26T03:28:14.339Z,0.00
2023-04-26T03:29:14.455Z,0.00
2023-04-26T03:30:14.308Z,4.00
2023-04-26T03:31:14.279Z,0.00
2023-04-26T03:32:14.413Z,0.00
2023-04-26T03:33:14.440Z,4.00
2023-04-26T03:34:14.243Z,0.00
2023-04-26T03:35:14.230Z,4.00
2023-04-26T03:36:14.370Z,4.00
2023-04-26T03:37:14.216Z,4.00
2023-04-26T03:38:14.219Z,0.00
2023-04-26T03:39:14.189Z,0.00
2023-04-26T03:40:14.188Z,4.00
2023-04-26T03:41:14.220Z,0.00
2023-04-26T03:42:14.167Z,4.00
2023-04-26T03:43:14.144Z,0.00
2023-04-26T03:44:14.163Z,4.00
2023-04-26T03:45:14.117Z,4.00
2023-04-26T03:46:14.152Z,4.00
2023-04-26T03:47:14.097Z,0.00
2023-04-26T03:48:14.100Z,4.00
2023-04-26T03:49:14.080Z,4.00
2023-04-26T03:50:14.090Z,4.00
2023-04-26T03:51:14.070Z,8.00
2023-04-26T03:52:14.054Z,8.00
2023-04-26T03:53:14.041Z,8.00
2023-04-26T03:54:14.017Z,8.00
2023-04-26T03:55:14.038Z,16.00
2023-04-26T03:56:14.025Z,24.00
2023-04-26T03:57:14.008Z,28.00
2023-04-26T03:58:14.196Z,32.00
2023-04-26T03:59:13.972Z,40.00
2023-04-26T04:00:14.016Z,40.00
2023-04-26T04:01:13.963Z,40.00
2023-04-26T04:02:14.624Z,40.00
2023-04-26T04:03:14.164Z,48.00
2023-04-26T04:04:14.312Z,60.00
2023-04-26T04:05:14.120Z,84.00
2023-04-26T04:06:13.904Z,100.00
2023-04-26T04:07:13.876Z,116.00
2023-04-26T04:08:13.876Z,132.00
2023-04-26T04:09:13.875Z,152.00
2023-04-26T04:10:13.829Z,184.00
2023-04-26T04:11:13.833Z,188.00
2023-04-26T04:12:13.843Z,172.00
2023-04-26T04:13:13.801Z,160.00
2023-04-26T04:14:13.792Z,172.00
2023-04-26T04:15:13.798Z,212.00
2023-04-26T04:16:13.882Z,244.00
2023-04-26T04:17:13.777Z,224.00
2023-04-26T04:18:13.809Z,180.00
2023-04-26T04:19:13.734Z,192.00
2023-04-26T04:20:13.733Z,224.00
2023-04-26T04:21:13.718Z,208.00
2023-04-26T04:22:13.716Z,184.00
2023-04-26T04:23:13.742Z,188.00
2023-04-26T04:24:13.712Z,204.00
2023-04-26T04:25:13.671Z,224.00
2023-04-26T04:26:13.656Z,224.00
2023-04-26T04:27:13.669Z,188.00
2023-04-26T04:28:13.622Z,208.00
2023-04-26T04:29:13.636Z,236.00
2023-04-26T04:30:13.623Z,184.00
2023-04-26T04:31:13.614Z,176.00
2023-04-26T04:32:13.573Z,192.00
2023-04-26T04:33:13.580Z,212.00
2023-04-26T04:34:13.612Z,244.00
2023-04-26T04:35:13.549Z,296.00
2023-04-26T04:36:13.556Z,244.00
2023-04-26T04:37:13.521Z,244.00
2023-04-26T04:38:13.558Z,264.00
2023-04-26T04:39:13.519Z,268.00
2023-04-26T04:40:13.662Z,256.00
2023-04-26T04:41:13.521Z,288.00
2023-04-26T04:42:13.484Z,292.00
2023-04-26T04:43:13.490Z,276.00
2023-04-26T04:44:13.461Z,268.00
2023-04-26T04:45:13.470Z,308.00
2023-04-26T04:46:13.498Z,384.00
2023-04-26T04:47:13.409Z,428.00
2023-04-26T04:48:13.433Z,424.00
2023-04-26T04:49:13.391Z,464.00
2023-04-26T04:50:13.374Z,460.00
2023-04-26T04:51:13.375Z,544.00
2023-04-26T04:52:13.373Z,668.00
2023-04-26T04:53:13.347Z,752.00
2023-04-26T04:54:13.332Z,820.00
2023-04-26T04:55:13.370Z,684.00
2023-04-26T04:56:13.323Z,604.00
2023-04-26T04:57:13.308Z,584.00
2023-04-26T04:58:13.283Z,516.00
2023-04-26T04:59:13.284Z,396.00
2023-04-26T05:00:13.261Z,276.00
2023-04-26T05:01:13.266Z,276.00
2023-04-26T05:02:13.492Z,288.00
2023-04-26T05:03:13.346Z,312.00
2023-04-26T05:04:13.357Z,360.00
2023-04-26T05:05:13.331Z,392.00
2023-04-26T05:06:13.209Z,396.00
2023-04-26T05:07:13.193Z,324.00
2023-04-26T05:08:13.173Z,216.00
2023-04-26T05:09:13.179Z,184.00
2023-04-26T05:10:13.186Z,224.00
2023-04-26T05:11:13.142Z,252.00
2023-04-26T05:12:13.156Z,284.00
2023-04-26T05:13:13.129Z,368.00
2023-04-26T05:14:13.124Z,404.00
2023-04-26T05:15:13.125Z,420.00
2023-04-26T05:16:13.182Z,404.00
2023-04-26T05:17:13.093Z,364.00
2023-04-26T05:18:13.092Z,360.00
2023-04-26T05:19:13.076Z,376.00
2023-04-26T05:20:13.036Z,364.00
2023-04-26T05:21:13.053Z,332.00
2023-04-26T05:22:13.036Z,344.00
2023-04-26T05:23:13.031Z,372.00
2023-04-26T05:24:12.990Z,440.00
2023-04-26T05:25:12.983Z,492.00
2023-04-26T05:26:12.991Z,500.00
2023-04-26T05:27:12.961Z,564.00
2023-04-26T05:28:12.993Z,724.00
2023-04-26T05:29:12.945Z,1156.00
2023-04-26T05:30:12.923Z,1180.00
2023-04-26T05:31:12.978Z,1244.00
2023-04-26T05:32:12.994Z,1104.00
2023-04-26T05:33:12.977Z,1092.00
2023-04-26T05:34:12.906Z,844.00
2023-04-26T05:35:12.905Z,836.00
2023-04-26T05:36:12.857Z,936.00
2023-04-26T05:37:12.847Z,776.00
2023-04-26T05:38:12.845Z,760.00
2023-04-26T05:39:13.925Z,860.00
2023-04-26T05:40:12.854Z,804.00
2023-04-26T05:41:12.802Z,756.00
2023-04-26T05:42:12.796Z,788.00
2023-04-26T05:43:12.785Z,912.00
2023-04-26T05:44:12.794Z,660.00
2023-04-26T05:45:12.788Z,804.00
2023-04-26T05:46:12.813Z,868.00
2023-04-26T05:47:12.736Z,820.00
2023-04-26T05:48:12.807Z,968.00
2023-04-26T05:49:12.795Z,1120.00
2023-04-26T05:50:12.700Z,1052.00
2023-04-26T05:51:12.691Z,976.00
2023-04-26T05:52:12.701Z,1616.00
2023-04-26T05:53:12.680Z,1380.00
2023-04-26T05:54:12.655Z,980.00
2023-04-26T05:55:12.640Z,1028.00
2023-04-26T05:56:12.629Z,880.00
2023-04-26T05:57:12.657Z,856.00
2023-04-26T05:58:12.633Z,792.00
2023-04-26T05:59:12.614Z,824.00
2023-04-26T06:00:12.641Z,832.00
2023-04-26T06:01:12.584Z,884.00
2023-04-26T06:02:12.628Z,912.00
2023-04-26T06:03:12.902Z,940.00
2023-04-26T06:04:12.769Z,936.00
2023-04-26T06:05:12.624Z,960.00
2023-04-26T06:06:12.558Z,968.00
2023-04-26T06:07:12.508Z,1100.00
2023-04-26T06:08:12.504Z,1416.00
2023-04-26T06:09:12.510Z,1684.00
2023-04-26T06:10:12.481Z,1852.00
2023-04-26T06:11:12.482Z,3756.00
2023-04-26T06:12:12.441Z,2816.00
2023-04-26T06:13:12.434Z,2292.00
2023-04-26T06:14:28.872Z,2256.00
2023-04-26T06:15:13.416Z,2184.00
2023-04-26T06:16:12.442Z,2364.00
2023-04-26T06:17:12.523Z,4800.00
2023-04-26T06:18:12.432Z,4812.00
2023-04-26T06:19:12.389Z,1956.00
2023-04-26T06:20:12.363Z,1868.00
2023-04-26T06:21:12.346Z,1536.00
2023-04-26T06:22:12.344Z,1908.00
2023-04-26T06:23:12.321Z,1956.00
2023-04-26T06:24:12.344Z,20928.00
2023-04-26T06:25:12.295Z,4908.00
2023-04-26T06:26:12.303Z,1624.00
2023-04-26T06:27:12.298Z,1608.00
2023-04-26T06:28:12.270Z,1532.00
2023-04-26T06:29:12.257Z,1296.00
2023-04-26T06:30:12.260Z,3032.00
2023-04-26T06:31:12.284Z,1644.00
2023-04-26T06:32:12.311Z,1580.00
2023-04-26T06:33:12.294Z,1300.00
2023-04-26T06:34:12.215Z,1364.00
2023-04-26T06:35:12.186Z,1280.00
2023-04-26T06:36:12.180Z,1208.00
2023-04-26T06:37:12.209Z,1432.00
2023-04-26T06:38:12.175Z,1668.00
2023-04-26T06:39:12.140Z,1836.00
2023-04-26T06:40:12.142Z,4136.00
2023-04-26T06:41:12.119Z,4656.00
2023-04-26T06:42:12.110Z,1872.00
2023-04-26T06:43:12.120Z,2820.00
2023-04-26T06:44:12.089Z,1604.00
2023-04-26T06:45:12.205Z,1560.00
2023-04-26T06:46:12.116Z,1776.00
2023-04-26T06:47:12.092Z,3424.00
2023-04-26T06:48:12.163Z,4020.00
2023-04-26T06:49:12.039Z,3516.00
2023-04-26T06:50:12.038Z,4716.00
2023-04-26T06:51:12.014Z,3868.00
2023-04-26T06:52:12.030Z,2864.00
2023-04-26T06:53:12.001Z,1852.00
2023-04-26T06:54:11.996Z,1320.00
2023-04-26T06:55:11.966Z,1116.00
2023-04-26T06:56:11.952Z,980.00
2023-04-26T06:57:11.954Z,824.00
2023-04-26T06:58:11.927Z,836.00
2023-04-26T06:59:11.922Z,920.00
2023-04-26T07:00:11.921Z,1044.00
2023-04-26T07:01:11.901Z,1148.00
2023-04-26T07:02:12.832Z,1172.00
2023-04-26T07:03:11.990Z,1836.00
2023-04-26T07:04:12.206Z,1432.00
2023-04-26T07:05:11.866Z,1468.00
2023-04-26T07:06:11.828Z,1540.00
2023-04-26T07:07:13.403Z,1996.00
2023-04-26T07:08:11.815Z,2924.00
2023-04-26T07:09:11.801Z,2576.00
2023-04-26T07:10:11.785Z,3116.00
2023-04-26T07:11:11.804Z,3192.00
2023-04-26T07:12:11.771Z,2764.00
2023-04-26T07:13:11.775Z,2888.00
2023-04-26T07:14:11.745Z,2404.00
2023-04-26T07:15:11.736Z,2152.00
2023-04-26T07:16:11.828Z,1608.00
2023-04-26T07:17:12.547Z,1248.00
2023-04-26T07:18:11.795Z,1156.00
2023-04-26T07:19:11.691Z,1072.00
2023-04-26T07:20:14.669Z,1024.00
2023-04-26T07:21:11.682Z,1136.00
2023-04-26T07:22:11.656Z,1236.00
2023-04-26T07:23:11.663Z,1324.00
2023-04-26T07:24:11.633Z,1308.00
2023-04-26T07:25:11.629Z,1348.00
2023-04-26T07:26:11.617Z,1548.00
2023-04-26T07:27:11.610Z,1792.00
2023-04-26T07:28:11.844Z,2064.00
2023-04-26T07:29:11.578Z,2344.00
2023-04-26T07:30:11.590Z,2524.00
2023-04-26T07:31:11.568Z,2604.00
2023-04-26T07:32:11.601Z,2580.00
2023-04-26T07:33:11.612Z,2548.00
2023-04-26T07:34:11.578Z,2768.00
2023-04-26T07:35:11.514Z,2984.00
2023-04-26T07:36:11.515Z,3832.00
2023-04-26T07:37:11.483Z,4116.00
2023-04-26T07:38:11.509Z,3796.00
2023-04-26T07:39:11.483Z,3500.00
2023-04-26T07:40:11.457Z,2964.00
2023-04-26T07:41:11.440Z,2292.00
2023-04-26T07:42:11.426Z,1816.00
2023-04-26T07:43:11.459Z,1600.00
2023-04-26T07:44:11.470Z,1840.00
2023-04-26T07:45:11.404Z,1872.00
2023-04-26T07:46:11.457Z,1940.00
2023-04-26T07:47:11.371Z,1820.00
2023-04-26T07:48:11.442Z,2156.00
2023-04-26T07:49:11.349Z,2532.00
2023-04-26T07:50:11.337Z,2740.00
2023-04-26T07:51:11.322Z,2632.00
2023-04-26T07:52:11.363Z,2336.00
2023-04-26T07:53:11.349Z,2028.00
2023-04-26T07:54:11.295Z,2024.00
2023-04-26T07:55:11.337Z,1888.00
2023-04-26T07:56:11.292Z,1700.00
2023-04-26T07:57:11.262Z,1640.00
2023-04-26T07:58:11.253Z,1600.00
2023-04-26T07:59:11.261Z,1696.00
2023-04-26T08:00:11.216Z,1940.00
2023-04-26T08:01:11.207Z,2216.00
2023-04-26T08:02:11.286Z,2384.00
2023-04-26T08:03:11.300Z,2700.00
2023-04-26T08:04:11.401Z,3136.00
2023-04-26T08:05:11.337Z,2900.00
2023-04-26T08:06:11.349Z,2808.00
2023-04-26T08:07:11.173Z,2808.00
2023-04-26T08:08:11.172Z,2920.00
2023-04-26T08:09:11.122Z,2840.00
2023-04-26T08:10:11.107Z,2568.00
2023-04-26T08:11:11.125Z,2484.00
2023-04-26T08:12:11.183Z,2368.00
2023-04-26T08:13:11.096Z,2176.00
2023-04-26T08:14:11.060Z,2180.00
2023-04-26T08:15:11.050Z,2108.00
2023-04-26T08:16:11.038Z,2020.00
2023-04-26T08:17:11.059Z,2068.00
2023-04-26T08:18:11.097Z,2172.00
2023-04-26T08:19:11.018Z,2388.00
2023-04-26T08:20:10.989Z,2356.00
2023-04-26T08:21:10.981Z,2292.00
2023-04-26T08:22:10.970Z,2276.00
2023-04-26T08:23:10.976Z,2140.00
2023-04-26T08:24:11.036Z,2120.00
2023-04-26T08:25:10.951Z,2136.00
2023-04-26T08:26:10.933Z,2144.00
2023-04-26T08:27:10.918Z,2244.00
2023-04-26T08:28:10.930Z,2320.00
2023-04-26T08:29:10.891Z,2304.00
2023-04-26T08:30:10.876Z,2208.00
2023-04-26T08:31:10.890Z,2232.00
2023-04-26T08:32:10.860Z,2176.00
2023-04-26T08:33:10.916Z,2104.00
2023-04-26T08:34:10.854Z,2072.00
2023-04-26T08:35:10.845Z,2036.00
2023-04-26T08:36:10.811Z,2116.00
2023-04-26T08:37:10.803Z,2220.00
2023-04-26T08:38:10.794Z,2324.00
2023-04-26T08:39:10.773Z,2428.00
2023-04-26T08:40:10.858Z,3252.00
2023-04-26T08:41:10.771Z,3248.00
2023-04-26T08:42:10.741Z,2800.00
2023-04-26T08:43:10.740Z,2668.00
2023-04-26T08:44:10.751Z,2684.00
2023-04-26T08:45:10.710Z,2764.00
2023-04-26T08:46:10.774Z,2816.00
2023-04-26T08:47:10.707Z,2704.00
2023-04-26T08:48:10.697Z,2464.00
2023-04-26T08:49:10.687Z,2264.00
2023-04-26T08:50:10.675Z,1964.00
2023-04-26T08:51:10.662Z,1656.00
2023-04-26T08:52:10.653Z,1484.00
2023-04-26T08:53:10.643Z,1396.00
2023-04-26T08:54:10.626Z,1304.00
2023-04-26T08:55:10.620Z,1256.00
2023-04-26T08:56:10.619Z,1256.00
2023-04-26T08:57:12.885Z,1288.00
2023-04-26T08:58:10.561Z,1340.00
2023-04-26T08:59:10.570Z,1540.00
2023-04-26T09:00:10.545Z,1800.00
2023-04-26T09:01:10.537Z,2052.00
2023-04-26T09:02:10.640Z,2332.00
2023-04-26T09:03:10.568Z,2540.00
2023-04-26T09:04:10.601Z,2664.00
2023-04-26T09:05:10.550Z,2724.00
2023-04-26T09:06:10.494Z,2980.00
2023-04-26T09:07:10.463Z,3288.00
2023-04-26T09:08:10.457Z,3164.00
2023-04-26T09:09:10.461Z,2968.00
2023-04-26T09:10:10.429Z,2960.00
2023-04-26T09:11:10.419Z,3148.00
2023-04-26T09:12:10.452Z,2984.00
2023-04-26T09:13:10.393Z,2852.00
2023-04-26T09:14:10.389Z,2796.00
2023-04-26T09:15:10.382Z,2860.00
2023-04-26T09:16:10.392Z,2952.00
2023-04-26T09:17:10.370Z,2936.00
2023-04-26T09:18:10.341Z,2844.00
2023-04-26T09:19:10.329Z,2780.00
2023-04-26T09:20:10.324Z,2692.00
2023-04-26T09:21:10.310Z,2644.00
2023-04-26T09:22:10.317Z,2636.00
2023-04-26T09:23:10.307Z,2584.00
2023-04-26T09:24:10.272Z,2644.00
2023-04-26T09:25:10.273Z,2836.00
2023-04-26T09:26:10.254Z,3992.00
2023-04-26T09:27:17.299Z,3716.00
2023-04-26T09:28:10.254Z,3808.00
2023-04-26T09:29:10.246Z,3572.00
2023-04-26T09:30:10.233Z,3532.00
2023-04-26T09:31:10.245Z,3496.00
2023-04-26T09:32:10.182Z,3396.00
2023-04-26T09:33:10.199Z,3356.00
2023-04-26T09:34:10.173Z,3220.00
2023-04-26T09:35:10.175Z,3148.00
2023-04-26T09:36:10.132Z,3080.00
2023-04-26T09:37:10.115Z,2968.00
2023-04-26T09:38:12.782Z,2764.00
2023-04-26T09:39:10.098Z,2664.00
2023-04-26T09:40:10.117Z,2544.00
2023-04-26T09:41:10.070Z,2396.00
2023-04-26T09:42:10.113Z,2348.00
2023-04-26T09:43:10.084Z,2452.00
2023-04-26T09:44:10.041Z,2472.00
2023-04-26T09:45:10.023Z,2400.00
2023-04-26T09:46:10.045Z,2360.00
2023-04-26T09:47:10.091Z,2384.00
2023-04-26T09:48:09.998Z,2556.00
2023-04-26T09:49:09.979Z,2756.00
2023-04-26T09:50:09.992Z,2848.00
2023-04-26T09:51:09.972Z,2916.00
2023-04-26T09:52:09.957Z,2956.00
2023-04-26T09:53:09.931Z,2988.00
2023-04-26T09:54:09.924Z,3404.00
2023-04-26T09:55:12.650Z,3140.00
2023-04-26T09:56:10.929Z,3280.00
2023-04-26T09:57:09.910Z,3500.00
2023-04-26T09:58:09.886Z,3688.00
2023-04-26T09:59:10.073Z,3956.00
2023-04-26T10:00:09.887Z,3800.00
2023-04-26T10:01:09.884Z,3696.00
2023-04-26T10:02:09.849Z,3516.00
2023-04-26T10:03:09.980Z,3164.00
2023-04-26T10:04:10.009Z,2876.00
2023-04-26T10:05:09.798Z,2524.00
2023-04-26T10:06:09.783Z,2288.00
2023-04-26T10:07:09.791Z,2232.00
2023-04-26T10:08:09.773Z,2196.00
2023-04-26T10:09:09.750Z,2188.00
2023-04-26T10:10:09.899Z,2124.00
2023-04-26T10:11:09.727Z,2048.00
2023-04-26T10:12:09.721Z,2016.00
2023-04-26T10:13:09.729Z,2076.00
2023-04-26T10:14:09.705Z,2220.00
2023-04-26T10:15:09.703Z,2408.00
2023-04-26T10:16:09.745Z,2584.00
2023-04-26T10:17:09.658Z,2784.00
2023-04-26T10:18:09.708Z,2928.00
2023-04-26T10:19:09.633Z,2916.00
2023-04-26T10:20:09.654Z,2908.00
2023-04-26T10:21:09.632Z,2824.00
2023-04-26T10:22:09.633Z,2844.00
2023-04-26T10:23:09.592Z,2932.00
2023-04-26T10:24:09.580Z,2924.00
2023-04-26T10:25:09.581Z,2980.00
2023-04-26T10:26:09.587Z,2828.00
2023-04-26T10:27:09.560Z,2888.00
2023-04-26T10:28:09.535Z,3096.00
2023-04-26T10:29:09.541Z,3320.00
2023-04-26T10:30:09.509Z,3536.00
2023-04-26T10:31:09.663Z,3796.00
2023-04-26T10:32:09.724Z,3832.00
2023-04-26T10:33:09.513Z,3748.00
2023-04-26T10:34:11.995Z,3796.00
2023-04-26T10:35:09.466Z,4504.00
2023-04-26T10:36:09.462Z,3812.00
2023-04-26T10:37:09.480Z,3904.00
2023-04-26T10:38:09.439Z,3776.00
2023-04-26T10:39:09.435Z,3888.00
2023-04-26T10:40:09.419Z,3968.00
2023-04-26T10:41:09.394Z,4444.00
2023-04-26T10:42:09.397Z,4208.00
2023-04-26T10:43:09.382Z,3652.00
2023-04-26T10:44:09.367Z,3588.00
2023-04-26T10:45:09.368Z,3432.00
2023-04-26T10:46:09.451Z,3168.00
2023-04-26T10:47:09.355Z,3068.00
2023-04-26T10:48:09.325Z,3084.00
2023-04-26T10:49:09.317Z,3176.00
2023-04-26T10:50:09.342Z,4308.00
2023-04-26T10:51:09.281Z,4356.00
2023-04-26T10:52:09.265Z,3552.00
2023-04-26T10:53:09.272Z,4592.00
2023-04-26T10:54:09.258Z,4692.00
2023-04-26T10:55:09.264Z,4824.00
2023-04-26T10:56:09.243Z,4856.00
2023-04-26T10:57:09.246Z,4032.00
2023-04-26T10:58:09.221Z,3464.00
2023-04-26T10:59:30.662Z,3224.00
2023-04-26T11:00:10.185Z,3032.00
2023-04-26T11:01:09.169Z,3024.00
2023-04-26T11:02:09.143Z,3020.00
2023-04-26T11:03:09.436Z,2912.00
2023-04-26T11:04:09.206Z,2812.00
2023-04-26T11:05:09.194Z,2688.00
2023-04-26T11:06:09.144Z,2596.00
2023-04-26T11:07:09.108Z,2548.00
2023-04-26T11:08:09.083Z,2608.00
2023-04-26T11:09:09.061Z,2764.00
2023-04-26T11:10:09.076Z,2968.00
2023-04-26T11:11:09.115Z,3080.00
2023-04-26T11:12:09.037Z,3116.00
2023-04-26T11:13:09.035Z,3404.00
2023-04-26T11:14:09.007Z,3532.00
2023-04-26T11:15:09.043Z,3368.00
2023-04-26T11:16:09.070Z,3256.00
2023-04-26T11:17:08.982Z,3248.00
2023-04-26T11:18:09.036Z,3376.00
2023-04-26T11:19:09.020Z,3508.00
2023-04-26T11:20:08.958Z,3648.00
2023-04-26T11:21:08.938Z,3712.00
2023-04-26T11:22:08.921Z,3612.00
2023-04-26T11:23:08.922Z,3592.00
2023-04-26T11:24:08.891Z,3628.00
2023-04-26T11:25:08.907Z,3856.00
2023-04-26T11:26:08.918Z,3436.00
2023-04-26T11:27:08.855Z,3552.00
2023-04-26T11:28:08.856Z,4796.00
2023-04-26T11:29:08.857Z,3676.00
2023-04-26T11:30:08.836Z,3460.00
2023-04-26T11:31:08.889Z,3288.00
2023-04-26T11:32:08.805Z,2952.00
2023-04-26T11:33:08.857Z,2732.00
2023-04-26T11:34:08.777Z,2684.00
2023-04-26T11:35:08.826Z,2732.00
2023-04-26T11:36:08.775Z,2796.00
2023-04-26T11:37:08.793Z,2860.00
2023-04-26T11:38:08.752Z,2936.00
2023-04-26T11:39:08.752Z,2972.00
2023-04-26T11:40:08.735Z,2996.00
2023-04-26T11:41:08.700Z,3112.00
2023-04-26T11:42:08.697Z,3152.00
2023-04-26T11:43:08.695Z,3192.00
2023-04-26T11:44:08.737Z,2856.00
2023-04-26T11:45:08.692Z,2820.00
2023-04-26T11:46:08.877Z,2812.00
2023-04-26T11:47:08.769Z,2940.00
2023-04-26T11:48:08.683Z,3104.00
2023-04-26T11:49:08.616Z,3180.00
2023-04-26T11:50:08.618Z,3296.00
2023-04-26T11:51:08.673Z,3396.00
2023-04-26T11:52:08.594Z,3460.00
2023-04-26T11:53:08.565Z,3444.00
2023-04-26T11:54:08.581Z,3392.00
2023-04-26T11:55:08.556Z,3320.00
2023-04-26T11:56:08.524Z,3264.00
2023-04-26T11:57:08.518Z,3148.00
2023-04-26T11:58:08.529Z,3068.00
2023-04-26T11:59:08.493Z,3112.00
2023-04-26T12:00:08.515Z,3260.00
2023-04-26T12:01:08.472Z,3388.00
2023-04-26T12:02:08.523Z,3396.00
2023-04-26T12:03:08.688Z,3376.00
2023-04-26T12:04:08.750Z,3440.00
2023-04-26T12:05:08.689Z,3448.00
2023-04-26T12:06:08.432Z,3440.00
2023-04-26T12:07:08.729Z,3596.00
2023-04-26T12:08:08.410Z,3772.00
2023-04-26T12:09:08.402Z,4120.00
2023-04-26T12:10:08.391Z,5508.00
2023-04-26T12:11:08.362Z,6064.00
2023-04-26T12:12:08.389Z,4236.00
2023-04-26T12:13:08.333Z,5084.00
2023-04-26T12:14:08.319Z,4420.00
2023-04-26T12:15:08.311Z,4172.00
2023-04-26T12:16:22.340Z,3904.00
2023-04-26T12:17:09.333Z,3536.00
2023-04-26T12:18:08.276Z,3496.00
2023-04-26T12:19:08.291Z,3536.00
2023-04-26T12:20:08.272Z,3640.00
2023-04-26T12:21:08.316Z,3740.00
2023-04-26T12:22:08.266Z,4904.00
2023-04-26T12:23:08.243Z,6648.00
2023-04-26T12:24:08.220Z,6724.00
2023-04-26T12:25:08.218Z,6520.00
2023-04-26T12:26:08.197Z,4520.00
2023-04-26T12:27:08.197Z,4424.00
2023-04-26T12:28:08.166Z,4104.00
2023-04-26T12:29:08.173Z,3852.00
2023-04-26T12:30:08.193Z,3716.00
2023-04-26T12:31:08.143Z,4784.00
2023-04-26T12:32:08.306Z,3832.00